Time;durP1;ratioP1;P1;durP2;ratioP2;P2;SDS_P1;SDS_P2;PMS_P1;PMS_P2;Temp;Humidity;BMP_temperature;BMP_pressure;BME280_temperature;BME280_humidity;BME280_pressure;Samples;Min_cycle;Max_cycle;Signal;HPM_P1;HPM_P2
2022/07/18 00:01:31;;;;;;;13.38;9.05;;;15.60;96.30;;;;;;5010203;28;20041;-75
2022/07/18 00:03:56;;;;;;;14.45;9.18;;;15.60;96.70;;;;;;5008907;28;20038;-75
2022/07/18 00:06:22;;;;;;;12.57;7.95;;;15.50;97.10;;;;;;5009579;28;20032;-76
2022/07/18 00:08:48;;;;;;;13.82;7.47;;;15.50;97.50;;;;;;5011714;28;20389;-75
2022/07/18 00:11:13;;;;;;;11.63;7.40;;;15.50;98.00;;;;;;5008762;28;20036;-75
2022/07/18 00:13:39;;;;;;;11.77;7.28;;;15.40;98.70;;;;;;5008491;28;20517;-75
2022/07/18 00:16:04;;;;;;;12.38;7.50;;;15.40;98.90;;;;;;5005219;28;20026;-75
2022/07/18 00:18:30;;;;;;;11.98;7.32;;;15.30;99.20;;;;;;5009796;28;20362;-74
2022/07/18 00:20:56;;;;;;;11.55;7.05;;;15.30;99.50;;;;;;5011243;28;20042;-75
2022/07/18 00:23:21;;;;;;;12.00;7.35;;;15.30;99.90;;;;;;5006056;28;20069;-75
2022/07/18 00:25:47;;;;;;;13.43;7.18;;;15.20;99.90;;;;;;5008162;28;20021;-74
2022/07/18 00:28:13;;;;;;;13.70;7.43;;;15.20;99.90;;;;;;5009407;28;20084;-75
2022/07/18 00:30:39;;;;;;;11.95;6.60;;;15.10;99.90;;;;;;5008896;28;20022;-75
2022/07/18 00:33:05;;;;;;;14.82;7.80;;;15.10;99.90;;;;;;5010039;28;20493;-75
2022/07/18 00:35:30;;;;;;;11.70;7.05;;;15.00;99.90;;;;;;5007120;28;20038;-75
2022/07/18 00:37:56;;;;;;;15.45;7.30;;;15.10;99.90;;;;;;5009585;28;20034;-75
2022/07/18 00:40:21;;;;;;;13.32;7.47;;;15.00;99.90;;;;;;5008321;28;20541;-75
2022/07/18 00:42:47;;;;;;;11.68;6.85;;;14.90;99.90;;;;;;5008195;28;20030;-75
2022/07/18 00:45:13;;;;;;;13.77;7.00;;;14.90;99.90;;;;;;5009072;28;20377;-75
2022/07/18 00:47:38;;;;;;;10.23;6.40;;;14.90;99.90;;;;;;5009167;28;20032;-75
2022/07/18 00:50:07;;;;;;;11.45;5.97;;;14.80;99.90;;;;;;5006399;28;20034;-75
2022/07/18 00:52:32;;;;;;;12.18;6.40;;;14.80;99.90;;;;;;5011424;28;20081;-75
2022/07/18 00:54:58;;;;;;;9.93;5.43;;;14.80;99.90;;;;;;5006636;28;20544;-75
2022/07/18 00:57:25;;;;;;;10.50;5.22;;;14.80;99.90;;;;;;5007623;28;20018;-75
2022/07/18 01:02:35;;;;;;;10.95;4.82;;;14.70;99.90;;;;;;5004779;28;20041;-75
2022/07/18 01:05:01;;;;;;;10.90;5.03;;;14.70;99.90;;;;;;5006150;28;20018;-74
2022/07/18 01:07:26;;;;;;;8.45;5.47;;;14.70;99.90;;;;;;5009867;28;20096;-75
2022/07/18 01:09:52;;;;;;;8.20;4.85;;;14.70;99.90;;;;;;5008488;28;20073;-75
2022/07/18 01:12:18;;;;;;;8.93;4.85;;;14.70;99.90;;;;;;5008550;28;20556;-75
2022/07/18 01:14:45;;;;;;;9.70;3.72;;;14.70;99.90;;;;;;5010693;28;20022;-75
2022/07/18 01:17:19;;;;;;;8.77;4.60;;;14.60;99.90;;;;;;5007230;28;20107;-74
2022/07/18 01:19:45;;;;;;;8.70;4.35;;;14.60;99.90;;;;;;5008356;28;20075;-75
2022/07/18 01:22:12;;;;;;;9.20;4.00;;;14.70;99.90;;;;;;5010081;28;20052;-75
2022/07/18 01:24:40;;;;;;;5.30;2.97;;;14.60;99.90;;;;;;5006339;28;20117;-75
2022/07/18 01:27:06;;;;;;;6.75;3.63;;;14.60;99.90;;;;;;5005870;28;20030;-75
2022/07/18 01:29:31;;;;;;;8.05;3.78;;;14.60;99.90;;;;;;5009279;28;20061;-75
2022/07/18 01:32:04;;;;;;;10.70;3.97;;;14.60;99.90;;;;;;5007858;28;20026;-74
2022/07/18 01:34:30;;;;;;;10.38;4.43;;;14.60;99.90;;;;;;5010171;28;20128;-75
2022/07/18 01:36:55;;;;;;;7.28;3.95;;;14.60;99.90;;;;;;5008528;28;20466;-75
2022/07/18 01:39:21;;;;;;;8.80;3.80;;;14.60;99.90;;;;;;5008194;28;20453;-76
2022/07/18 01:41:57;;;;;;;8.38;4.50;;;14.60;99.90;;;;;;5012617;28;20112;-75
2022/07/18 01:44:24;;;;;;;8.55;4.15;;;14.60;99.90;;;;;;5010981;28;20116;-75
2022/07/18 01:46:49;;;;;;;7.03;3.83;;;14.50;99.90;;;;;;5012221;28;20038;-75
2022/07/18 01:49:15;;;;;;;9.10;4.43;;;14.50;99.90;;;;;;5012005;28;20544;-75
2022/07/18 01:51:46;;;;;;;10.85;5.35;;;14.50;99.90;;;;;;5012429;28;20026;-74
2022/07/18 01:54:11;;;;;;;8.07;4.25;;;14.50;99.90;;;;;;5013937;28;20096;-75
2022/07/18 01:56:37;;;;;;;8.90;4.28;;;14.50;99.90;;;;;;5010611;28;20026;-75
2022/07/18 01:59:03;;;;;;;8.13;4.25;;;14.50;99.90;;;;;;5010718;28;20028;-75
2022/07/18 02:01:28;;;;;;;10.57;4.70;;;14.40;99.90;;;;;;5011568;28;20022;-75
2022/07/18 02:03:54;;;;;;;8.38;5.38;;;14.40;99.90;;;;;;5012105;28;20029;-75
2022/07/18 02:06:19;;;;;;;9.77;5.45;;;14.40;99.90;;;;;;5026418;28;20094;-75
2022/07/18 02:08:45;;;;;;;7.20;5.05;;;14.40;99.90;;;;;;5020759;28;20026;-75
2022/07/18 02:11:11;;;;;;;9.88;5.93;;;14.30;99.90;;;;;;5014435;28;20026;-75
2022/07/18 02:13:36;;;;;;;8.52;4.95;;;14.30;99.90;;;;;;5015059;28;20053;-75
2022/07/18 02:16:02;;;;;;;9.43;5.88;;;14.30;99.90;;;;;;5016939;28;20455;-74
2022/07/18 02:18:27;;;;;;;12.20;6.05;;;14.20;99.90;;;;;;5014002;28;20026;-75
2022/07/18 02:20:53;;;;;;;10.50;6.30;;;14.30;99.90;;;;;;5012931;28;20034;-74
2022/07/18 02:23:18;;;;;;;10.07;5.57;;;14.20;99.90;;;;;;5010740;28;20061;-75
2022/07/18 02:25:44;;;;;;;8.73;5.25;;;14.20;99.90;;;;;;5000718;28;20023;-75
2022/07/18 02:28:09;;;;;;;9.00;5.57;;;14.20;99.90;;;;;;5003559;28;20069;-75
2022/07/18 02:30:35;;;;;;;9.70;5.05;;;14.20;99.90;;;;;;5001766;28;20033;-74
2022/07/18 02:33:00;;;;;;;9.88;5.43;;;14.10;99.90;;;;;;5012520;28;20025;-75
2022/07/18 02:35:26;;;;;;;10.57;5.43;;;14.10;99.90;;;;;;5000510;28;20033;-75
2022/07/18 02:37:51;;;;;;;10.30;5.55;;;14.10;99.90;;;;;;5008191;28;20036;-75
2022/07/18 02:40:17;;;;;;;9.77;5.30;;;14.10;99.90;;;;;;5010248;28;20481;-74
2022/07/18 02:42:43;;;;;;;8.40;5.10;;;14.10;99.90;;;;;;5010340;28;20370;-75
2022/07/18 02:45:09;;;;;;;9.73;4.78;;;14.10;99.90;;;;;;5015091;28;20363;-74
2022/07/18 02:47:35;;;;;;;9.10;4.55;;;14.10;99.90;;;;;;5005903;28;20481;-75
2022/07/18 02:50:00;;;;;;;8.80;4.68;;;14.10;99.90;;;;;;5011246;28;20033;-75
2022/07/18 02:52:26;;;;;;;11.15;5.10;;;14.10;99.90;;;;;;5009505;28;20050;-75
2022/07/18 02:54:51;;;;;;;9.18;5.35;;;14.10;99.90;;;;;;5007557;28;20029;-75
2022/07/18 02:57:17;;;;;;;10.48;4.95;;;14.00;99.90;;;;;;5009743;28;20029;-74
2022/07/18 02:59:42;;;;;;;10.13;5.25;;;14.00;99.90;;;;;;5011530;28;20042;-75
2022/07/18 03:02:08;;;;;;;8.43;5.28;;;13.90;99.90;;;;;;5009920;28;20042;-75
2022/07/18 03:04:33;;;;;;;8.00;4.93;;;13.90;99.90;;;;;;5011816;28;20030;-75
2022/07/18 03:06:59;;;;;;;10.75;4.72;;;13.90;99.90;;;;;;5010864;28;20122;-75
2022/07/18 03:09:27;;;;;;;8.35;4.93;;;13.80;99.90;;;;;;5011315;28;20474;-75
2022/07/18 03:11:54;;;;;;;9.25;4.95;;;13.80;99.90;;;;;;5011044;28;20025;-75
2022/07/18 03:14:20;;;;;;;8.60;4.97;;;13.80;99.90;;;;;;5012386;28;20459;-74
2022/07/18 03:16:46;;;;;;;7.50;4.75;;;13.80;99.90;;;;;;5006770;28;20031;-74
2022/07/18 03:19:11;;;;;;;9.52;4.70;;;13.70;99.90;;;;;;5011820;28;20030;-75
2022/07/18 03:21:37;;;;;;;9.15;4.57;;;13.70;99.90;;;;;;5008509;28;20037;-75
2022/07/18 03:24:03;;;;;;;9.82;5.20;;;13.70;99.90;;;;;;5011367;28;20026;-75
2022/07/18 03:26:28;;;;;;;9.32;4.45;;;13.70;99.90;;;;;;5010576;28;20045;-75
2022/07/18 03:28:54;;;;;;;9.85;5.65;;;13.70;99.90;;;;;;5010085;28;20064;-75
2022/07/18 03:31:19;;;;;;;9.93;4.78;;;13.60;99.90;;;;;;5009153;28;20050;-75
2022/07/18 03:33:45;;;;;;;9.38;4.70;;;13.70;99.90;;;;;;5009021;28;20106;-75
2022/07/18 03:36:10;;;;;;;9.73;4.32;;;13.70;99.90;;;;;;5009797;28;20516;-75
2022/07/18 03:38:36;;;;;;;10.48;4.93;;;13.70;99.90;;;;;;5009657;28;20026;-75
2022/07/18 03:41:03;;;;;;;9.10;4.47;;;13.70;99.90;;;;;;5010611;28;20038;-75
2022/07/18 03:43:29;;;;;;;8.05;4.18;;;13.70;99.90;;;;;;5008844;28;20023;-75
2022/07/18 03:45:54;;;;;;;7.55;4.28;;;13.70;99.90;;;;;;5007650;28;20112;-75
2022/07/18 03:48:20;;;;;;;9.50;4.28;;;13.70;99.90;;;;;;5010296;28;20080;-75
2022/07/18 03:50:45;;;;;;;9.55;3.95;;;13.60;99.90;;;;;;5008962;28;20367;-75
2022/07/18 03:53:11;;;;;;;8.43;4.28;;;13.70;99.90;;;;;;5007053;28;20045;-75
2022/07/18 03:55:37;;;;;;;8.93;5.15;;;13.70;99.90;;;;;;5010038;28;20026;-74
2022/07/18 03:58:02;;;;;;;9.18;5.10;;;13.70;99.90;;;;;;5009164;28;20033;-75
2022/07/18 04:00:28;;;;;;;10.57;5.15;;;13.70;99.90;;;;;;5009873;28;20026;-75
2022/07/18 04:02:53;;;;;;;12.02;5.63;;;13.70;99.90;;;;;;5011299;28;20064;-75
2022/07/18 04:05:19;;;;;;;9.90;6.50;;;13.60;99.90;;;;;;5012018;28;20029;-75
2022/07/18 04:07:44;;;;;;;12.70;6.50;;;13.70;99.90;;;;;;5009978;28;20029;-75
2022/07/18 04:10:11;;;;;;;10.93;5.60;;;13.70;99.90;;;;;;5008570;28;20402;-75
2022/07/18 04:12:54;;;;;;;9.80;5.63;;;13.70;99.90;;;;;;5009509;28;20460;-75
2022/07/18 04:15:21;;;;;;;12.45;5.40;;;13.70;99.90;;;;;;5010649;28;20026;-75
2022/07/18 04:17:47;;;;;;;12.68;5.45;;;13.70;99.90;;;;;;5011851;28;20044;-75
2022/07/18 04:20:14;;;;;;;13.38;5.85;;;13.70;99.90;;;;;;5006089;28;20037;-75
2022/07/18 04:22:56;;;;;;;10.93;5.22;;;13.70;99.90;;;;;;5011092;28;20073;-75
2022/07/18 04:25:26;;;;;;;8.57;5.28;;;13.80;99.90;;;;;;5005274;28;20295;-75
2022/07/18 04:27:53;;;;;;;9.43;5.07;;;13.70;99.90;;;;;;5005194;28;20528;-75
2022/07/18 04:30:22;;;;;;;11.15;5.93;;;13.80;99.90;;;;;;5003525;28;20556;-75
2022/07/18 04:32:48;;;;;;;11.77;5.55;;;13.80;99.90;;;;;;5009255;28;20030;-76
2022/07/18 04:35:14;;;;;;;9.45;6.18;;;13.80;99.90;;;;;;5010307;28;20505;-75
2022/07/18 04:37:40;;;;;;;9.73;6.28;;;13.90;99.90;;;;;;5010871;28;20355;-75
2022/07/18 04:40:08;;;;;;;9.93;5.35;;;13.90;99.90;;;;;;5005326;28;20033;-75
2022/07/18 04:42:34;;;;;;;10.52;5.10;;;14.00;99.90;;;;;;5007757;28;20034;-75
2022/07/18 04:44:59;;;;;;;11.85;5.45;;;14.00;99.90;;;;;;5009728;28;20374;-75
2022/07/18 04:47:26;;;;;;;9.18;5.60;;;14.10;99.90;;;;;;5010747;28;20543;-75
2022/07/18 04:49:51;;;;;;;9.75;4.78;;;14.20;99.90;;;;;;5007623;28;20033;-75
2022/07/18 04:52:17;;;;;;;8.30;4.60;;;14.30;99.90;;;;;;5009997;28;20508;-75
2022/07/18 04:54:42;;;;;;;8.57;4.70;;;14.30;99.90;;;;;;5011250;28;20505;-75
2022/07/18 04:57:11;;;;;;;11.35;4.57;;;14.40;99.90;;;;;;5010138;28;20040;-76
2022/07/18 04:59:37;;;;;;;13.73;4.53;;;14.50;99.90;;;;;;5004816;28;20038;-75
2022/07/18 05:02:02;;;;;;;9.00;4.05;;;14.60;99.90;;;;;;5005624;28;20058;-75
2022/07/18 05:04:28;;;;;;;9.50;4.28;;;14.70;99.90;;;;;;5010005;28;20106;-74
2022/07/18 05:06:54;;;;;;;6.25;3.60;;;15.00;99.90;;;;;;5010582;28;20034;-75
2022/07/18 05:09:19;;;;;;;10.30;3.67;;;15.20;99.90;;;;;;5010117;28;20022;-76
2022/07/18 05:11:46;;;;;;;11.52;2.63;;;15.60;99.90;;;;;;5011485;28;20042;-75
2022/07/18 05:14:11;;;;;;;6.05;3.08;;;15.90;99.90;;;;;;5009232;28;20068;-75
2022/07/18 05:16:37;;;;;;;7.30;3.67;;;16.30;99.90;;;;;;5008517;28;20125;-76
2022/07/18 05:19:02;;;;;;;6.85;2.85;;;16.60;99.90;;;;;;5010950;28;20022;-76
2022/07/18 05:21:28;;;;;;;6.03;2.88;;;17.10;99.90;;;;;;5010115;28;20474;-75
2022/07/18 05:23:53;;;;;;;7.22;2.17;;;17.50;99.90;;;;;;5011019;28;20360;-77
2022/07/18 05:26:19;;;;;;;4.95;2.30;;;17.90;99.90;;;;;;5006133;28;20021;-76
2022/07/18 05:28:44;;;;;;;7.78;2.95;;;18.30;99.90;;;;;;5011429;28;20041;-75
2022/07/18 05:31:11;;;;;;;5.47;2.35;;;18.60;99.90;;;;;;5005541;28;20037;-76
2022/07/18 05:33:36;;;;;;;4.78;2.17;;;19.00;99.90;;;;;;5004973;28;20071;-76
2022/07/18 05:36:03;;;;;;;6.32;2.50;;;19.30;99.90;;;;;;5007122;28;20037;-76
2022/07/18 05:38:29;;;;;;;7.53;2.40;;;19.60;99.90;;;;;;5009272;28;20034;-76
2022/07/18 05:40:54;;;;;;;6.00;1.85;;;19.90;99.90;;;;;;5004073;28;20032;-76
2022/07/18 05:43:20;;;;;;;5.90;1.73;;;20.20;99.90;;;;;;4999809;28;20057;-76
2022/07/18 05:45:46;;;;;;;5.80;1.92;;;20.50;99.90;;;;;;5000901;28;20026;-76
2022/07/18 05:48:11;;;;;;;4.95;2.10;;;20.80;99.90;;;;;;5003354;28;20390;-76
2022/07/18 05:50:37;;;;;;;6.40;2.10;;;21.00;99.00;;;;;;5003095;28;20528;-76
2022/07/18 05:53:02;;;;;;;6.25;1.40;;;21.10;97.70;;;;;;5011152;28;20062;-76
2022/07/18 05:55:28;;;;;;;4.93;2.00;;;21.20;97.20;;;;;;5007699;28;20018;-75
2022/07/18 05:57:53;;;;;;;6.72;1.92;;;21.20;96.40;;;;;;5011370;28;20120;-74
2022/07/18 06:00:19;;;;;;;5.13;1.67;;;21.20;95.50;;;;;;5003270;28;20041;-75
2022/07/18 06:02:48;;;;;;;4.15;1.48;;;21.20;95.10;;;;;;5011100;28;20497;-76
2022/07/18 06:05:13;;;;;;;4.57;1.45;;;21.20;94.30;;;;;;5010011;28;20061;-75
2022/07/18 06:07:39;;;;;;;4.88;1.70;;;21.10;94.00;;;;;;5009639;28;20453;-76
2022/07/18 06:10:05;;;;;;;5.75;1.48;;;21.10;93.90;;;;;;4996649;28;20082;-76
2022/07/18 06:12:31;;;;;;;5.00;1.55;;;21.10;93.70;;;;;;5011486;28;20022;-76
2022/07/18 06:14:58;;;;;;;7.00;1.38;;;21.20;93.10;;;;;;5010155;28;20132;-76
2022/07/18 06:17:24;;;;;;;6.00;1.60;;;21.20;92.90;;;;;;5010877;28;20084;-76
2022/07/18 06:19:49;;;;;;;8.90;1.23;;;21.30;92.90;;;;;;5010065;28;20029;-76
2022/07/18 06:22:15;;;;;;;5.80;1.05;;;21.40;92.70;;;;;;5010797;28;20037;-76
2022/07/18 06:24:40;;;;;;;4.25;0.95;;;21.50;92.30;;;;;;5010563;28;20025;-76
2022/07/18 06:27:06;;;;;;;8.25;1.13;;;21.60;92.00;;;;;;5014255;28;20080;-75
2022/07/18 06:29:32;;;;;;;4.40;0.90;;;21.70;91.40;;;;;;5008751;28;20156;-75
2022/07/18 06:31:57;;;;;;;6.05;1.05;;;21.80;91.20;;;;;;4997388;28;20033;-75
2022/07/18 06:34:23;;;;;;;5.18;0.90;;;21.90;90.80;;;;;;5014113;28;20029;-74
2022/07/18 06:36:49;;;;;;;6.50;1.40;;;22.10;90.60;;;;;;5004992;28;20041;-76
2022/07/18 06:39:16;;;;;;;5.05;1.38;;;22.10;90.00;;;;;;5008956;28;20057;-76
2022/07/18 06:41:42;;;;;;;5.20;1.10;;;22.20;89.40;;;;;;5007459;28;20125;-77
2022/07/18 06:44:08;;;;;;;4.82;1.55;;;22.30;88.50;;;;;;5003780;28;20589;-75
2022/07/18 06:46:33;;;;;;;4.05;0.95;;;22.30;87.90;;;;;;4999099;28;20137;-76
2022/07/18 06:48:59;;;;;;;4.88;1.10;;;22.40;87.40;;;;;;5008655;28;20044;-77
2022/07/18 06:51:25;;;;;;;4.05;0.90;;;22.40;87.10;;;;;;5006973;28;20041;-76
2022/07/18 06:53:51;;;;;;;7.10;1.08;;;22.50;86.70;;;;;;5013128;28;20050;-76
2022/07/18 06:56:17;;;;;;;4.90;1.10;;;22.60;86.60;;;;;;5010495;28;20068;-76
2022/07/18 06:58:48;;;;;;;4.38;1.42;;;22.70;86.50;;;;;;5011258;28;20393;-76
2022/07/18 07:01:17;;;;;;;5.18;1.00;;;22.70;85.90;;;;;;5012656;28;20041;-77
2022/07/18 07:03:43;;;;;;;4.55;1.30;;;22.90;86.00;;;;;;5013870;28;20045;-77
2022/07/18 07:06:09;;;;;;;4.75;1.02;;;22.90;85.60;;;;;;5007083;28;20101;-77
2022/07/18 07:08:35;;;;;;;6.47;1.60;;;23.00;85.40;;;;;;5013130;28;20096;-77
2022/07/18 07:11:01;;;;;;;5.28;1.10;;;23.10;84.70;;;;;;5010637;28;20427;-77
2022/07/18 07:13:26;;;;;;;11.20;1.50;;;23.20;83.90;;;;;;5007811;28;20037;-77
2022/07/18 07:15:52;;;;;;;5.88;1.30;;;23.20;83.20;;;;;;4997631;28;20113;-77
2022/07/18 07:18:17;;;;;;;5.78;1.63;;;23.30;82.70;;;;;;4993748;28;20045;-77
2022/07/18 07:20:43;;;;;;;3.55;1.00;;;23.40;82.20;;;;;;4994332;28;20022;-77
2022/07/18 07:23:09;;;;;;;7.13;1.33;;;23.40;81.80;;;;;;5011533;28;20037;-77
2022/07/18 07:25:36;;;;;;;8.23;1.90;;;23.50;81.90;;;;;;5013490;28;20060;-77
2022/07/18 07:28:02;;;;;;;4.85;1.45;;;23.60;81.40;;;;;;5011965;28;20040;-77
2022/07/18 07:30:27;;;;;;;8.30;1.25;;;23.70;80.80;;;;;;5008725;28;20029;-77
2022/07/18 07:32:53;;;;;;;3.95;1.15;;;23.80;80.50;;;;;;4997265;28;20534;-78
2022/07/18 07:35:20;;;;;;;5.32;1.50;;;23.90;80.40;;;;;;5009099;28;20034;-78
2022/07/18 07:37:48;;;;;;;6.35;1.35;;;24.00;80.00;;;;;;5012659;28;20359;-78
2022/07/18 07:40:15;;;;;;;4.53;1.60;;;24.10;79.70;;;;;;5009320;28;20473;-77
2022/07/18 07:42:40;;;;;;;6.28;1.73;;;24.20;78.80;;;;;;5011627;28;20041;-77
2022/07/18 07:45:07;;;;;;;10.68;2.40;;;24.30;78.00;;;;;;4997645;28;20045;-77
2022/07/18 07:47:34;;;;;;;5.88;2.20;;;24.40;77.90;;;;;;5002523;28;20121;-77
2022/07/18 07:50:00;;;;;;;7.47;1.95;;;24.50;77.60;;;;;;5006706;28;20434;-78
2022/07/18 07:52:27;;;;;;;6.38;2.63;;;24.60;77.60;;;;;;5000305;28;20121;-78
2022/07/18 07:54:53;;;;;;;5.85;2.10;;;24.70;77.30;;;;;;5011400;28;20026;-78
2022/07/18 07:57:19;;;;;;;5.28;1.80;;;24.80;77.10;;;;;;5011914;28;20029;-77
2022/07/18 07:59:44;;;;;;;6.43;2.10;;;24.90;76.70;;;;;;5011741;28;20092;-78
2022/07/18 08:02:10;;;;;;;6.70;1.67;;;24.90;76.60;;;;;;5012365;28;20478;-77
2022/07/18 08:04:36;;;;;;;3.83;1.70;;;25.00;76.10;;;;;;5011108;28;20025;-77
2022/07/18 08:07:02;;;;;;;6.72;2.17;;;25.00;75.30;;;;;;5012169;28;20021;-77
2022/07/18 08:09:27;;;;;;;4.93;1.70;;;25.10;74.40;;;;;;5009050;28;20041;-77
2022/07/18 08:11:53;;;;;;;7.70;2.17;;;25.10;73.60;;;;;;5012149;28;20033;-78
2022/07/18 08:14:19;;;;;;;8.50;1.92;;;25.20;73.50;;;;;;5011899;28;20033;-78
2022/07/18 08:16:44;;;;;;;4.15;1.92;;;25.30;73.40;;;;;;5010579;28;20041;-78
2022/07/18 08:19:10;;;;;;;6.35;1.90;;;25.40;71.90;;;;;;5012223;28;20389;-78
2022/07/18 08:21:35;;;;;;;8.80;1.45;;;25.50;71.80;;;;;;5011539;28;20130;-77
2022/07/18 08:24:01;;;;;;;3.55;1.02;;;25.60;71.80;;;;;;5012251;28;20045;-77
2022/07/18 08:26:26;;;;;;;3.15;1.23;;;25.70;71.70;;;;;;5012435;28;20030;-78
2022/07/18 08:28:52;;;;;;;4.82;1.38;;;25.80;71.40;;;;;;5011143;28;20065;-77
2022/07/18 08:31:18;;;;;;;3.28;1.23;;;25.90;70.60;;;;;;5010796;28;20986;-79
2022/07/18 08:33:45;;;;;;;3.95;1.52;;;25.90;69.40;;;;;;5012518;28;20041;-77
2022/07/18 08:36:10;;;;;;;3.35;1.10;;;26.00;68.30;;;;;;5011712;28;20528;-78
2022/07/18 08:38:36;;;;;;;5.22;1.25;;;26.20;67.00;;;;;;5010721;28;20033;-78
2022/07/18 08:41:03;;;;;;;3.92;1.30;;;26.30;66.20;;;;;;5009954;28;20029;-78
2022/07/18 08:43:29;;;;;;;2.60;1.08;;;26.40;67.00;;;;;;5007081;28;20062;-76
2022/07/18 08:45:56;;;;;;;4.78;1.25;;;26.60;65.90;;;;;;4993745;28;20057;-78
2022/07/18 08:48:22;;;;;;;4.90;1.17;;;26.80;65.90;;;;;;4999984;28;20121;-77
2022/07/18 08:50:48;;;;;;;8.63;1.70;;;26.90;65.60;;;;;;5011324;28;20104;-77
2022/07/18 08:53:16;;;;;;;3.97;1.55;;;27.10;65.30;;;;;;5011478;28;20053;-78
2022/07/18 08:55:42;;;;;;;4.05;2.20;;;27.20;64.50;;;;;;5012096;28;20018;-75
2022/07/18 08:58:09;;;;;;;5.30;2.05;;;27.20;63.40;;;;;;5011491;28;20022;-76
2022/07/18 09:00:35;;;;;;;3.65;1.67;;;27.20;63.00;;;;;;5010701;28;20030;-76
2022/07/18 09:03:03;;;;;;;5.22;1.92;;;27.20;63.40;;;;;;5011322;28;20444;-76
2022/07/18 09:05:29;;;;;;;3.00;1.73;;;27.30;63.00;;;;;;5011312;28;20030;-76
2022/07/18 09:08:19;;;;;;;3.75;2.30;;;27.30;62.60;;;;;;5011968;28;20038;-76
2022/07/18 09:10:58;;;;;;;6.35;2.28;;;27.40;61.60;;;;;;5010139;28;20087;-76
2022/07/18 09:13:38;;;;;;;4.45;2.50;;;27.50;62.10;;;;;;5010274;28;20429;-78
2022/07/18 09:16:07;;;;;;;4.28;2.30;;;27.60;60.80;;;;;;5012060;28;20026;-78
2022/07/18 09:18:38;;;;;;;4.05;2.30;;;27.60;60.40;;;;;;5011840;28;20394;-78
2022/07/18 09:21:18;;;;;;;4.57;3.20;;;27.60;60.10;;;;;;5010119;28;20571;-78
2022/07/18 09:23:48;;;;;;;5.90;2.90;;;27.80;59.80;;;;;;5011546;28;20037;-78
2022/07/18 09:26:35;;;;;;;7.57;3.05;;;27.80;59.50;;;;;;5011220;28;20540;-77
2022/07/18 09:29:01;;;;;;;6.55;2.60;;;28.00;59.40;;;;;;5011199;28;20018;-78
2022/07/18 09:31:27;;;;;;;4.95;1.70;;;28.00;59.00;;;;;;5010398;28;20041;-78
2022/07/18 09:33:56;;;;;;;5.15;1.92;;;28.10;59.50;;;;;;5011563;28;20033;-78
2022/07/18 09:36:22;;;;;;;4.90;2.30;;;28.20;59.00;;;;;;5010877;28;20385;-76
2022/07/18 09:38:48;;;;;;;5.63;2.28;;;28.40;58.50;;;;;;5010662;28;20022;-77
2022/07/18 09:41:13;;;;;;;4.25;1.63;;;28.50;57.60;;;;;;5010447;28;20083;-75
2022/07/18 09:43:39;;;;;;;4.80;2.00;;;28.70;57.40;;;;;;5011553;28;20039;-76
2022/07/18 09:46:07;;;;;;;6.28;1.35;;;28.80;56.00;;;;;;5011132;28;20108;-76
2022/07/18 09:48:32;;;;;;;4.10;1.10;;;28.90;55.70;;;;;;5011825;28;20453;-77
2022/07/18 09:51:00;;;;;;;3.17;0.95;;;29.10;55.10;;;;;;5007655;28;20109;-76
2022/07/18 09:53:29;;;;;;;2.92;1.02;;;29.20;54.90;;;;;;5009388;28;20375;-77
2022/07/18 09:55:58;;;;;;;2.90;0.90;;;29.50;54.20;;;;;;5011536;28;20385;-77
2022/07/18 09:58:29;;;;;;;3.45;1.10;;;29.70;53.90;;;;;;5009551;28;20025;-76
2022/07/18 10:00:57;;;;;;;7.97;1.30;;;29.80;53.10;;;;;;5011841;28;20037;-79
2022/07/18 10:03:23;;;;;;;3.65;1.25;;;29.70;53.70;;;;;;5015218;28;20462;-78
2022/07/18 10:05:50;;;;;;;3.33;1.67;;;29.60;54.00;;;;;;5013742;28;20010;-77
2022/07/18 10:08:19;;;;;;;2.70;0.73;;;29.70;53.40;;;;;;5012170;28;20038;-78
2022/07/18 10:10:47;;;;;;;3.22;1.10;;;29.60;54.10;;;;;;5012059;28;20370;-78
2022/07/18 10:13:13;;;;;;;4.65;0.90;;;29.60;53.50;;;;;;5014466;28;20482;-77
2022/07/18 10:15:41;;;;;;;4.00;1.00;;;29.80;52.90;;;;;;5010815;28;20029;-78
2022/07/18 10:18:10;;;;;;;4.82;1.20;;;30.10;52.50;;;;;;5007389;28;20459;-77
2022/07/18 10:20:47;;;;;;;5.35;1.15;;;30.20;52.10;;;;;;5013910;28;20034;-77
2022/07/18 10:23:23;;;;;;;4.20;1.17;;;30.30;51.90;;;;;;5004760;28;20528;-77
2022/07/18 10:26:06;;;;;;;5.55;1.50;;;30.40;51.60;;;;;;4995209;28;20034;-77
2022/07/18 10:28:32;;;;;;;3.20;1.10;;;30.60;51.30;;;;;;5012279;28;20030;-78
2022/07/18 10:31:14;;;;;;;3.60;1.20;;;30.60;51.20;;;;;;5011950;28;20049;-78
2022/07/18 10:33:48;;;;;;;1.67;0.70;;;30.70;50.40;;;;;;5011854;28;20065;-77
2022/07/18 10:36:17;;;;;;;4.03;0.85;;;30.80;51.50;;;;;;5013172;28;20033;-77
2022/07/18 10:39:23;;;;;;;3.45;0.73;;;30.80;50.80;;;;;;5014469;28;20034;-76
2022/07/18 10:41:52;;;;;;;4.22;0.60;;;30.70;51.00;;;;;;4993283;28;20093;-78
2022/07/18 10:44:24;;;;;;;4.68;0.70;;;30.40;51.00;;;;;;4994479;28;20825;-78
2022/07/18 10:49:56;;;;;;;2.70;0.50;;;30.10;50.70;;;;;;5004261;28;20034;-77
2022/07/18 10:52:33;;;;;;;3.70;0.57;;;30.10;51.10;;;;;;5008350;28;20049;-78
2022/07/18 10:55:22;;;;;;;2.50;0.50;;;30.20;50.90;;;;;;5006004;28;21743;-78
2022/07/18 10:57:52;;;;;;;4.43;0.80;;;30.40;50.40;;;;;;5011361;28;20026;-79
2022/07/18 11:00:39;;;;;;;2.08;0.60;;;30.40;50.20;;;;;;5005878;28;20068;-78
2022/07/18 11:03:09;;;;;;;3.38;0.63;;;30.60;50.00;;;;;;5003640;28;20121;-78
2022/07/18 11:05:49;;;;;;;2.55;0.50;;;30.60;49.80;;;;;;5006773;28;20147;-77
2022/07/18 11:08:14;;;;;;;1.25;0.60;;;30.60;49.70;;;;;;4997359;28;20029;-77
2022/07/18 11:11:03;;;;;;;2.75;0.40;;;30.60;49.70;;;;;;5034434;22;20057;-84
2022/07/18 11:13:41;;;;;;;2.08;0.40;;;30.70;49.10;;;;;;5033697;28;20473;-82
2022/07/18 11:16:15;;;;;;;1.10;0.40;;;30.90;49.70;;;;;;5013957;28;20535;-84
2022/07/18 11:18:43;;;;;;;3.55;0.50;;;31.10;49.30;;;;;;4997185;28;20058;-84
2022/07/18 11:21:24;;;;;;;2.80;0.70;;;31.20;50.00;;;;;;5015860;28;20033;-84
2022/07/18 11:23:52;;;;;;;1.50;0.55;;;31.30;48.90;;;;;;5016470;28;20041;-84
2022/07/18 11:26:20;;;;;;;3.58;0.60;;;31.40;48.90;;;;;;5016282;28;20050;-83
2022/07/18 11:28:48;;;;;;;2.92;0.40;;;31.50;47.80;;;;;;5033337;28;20037;-84
2022/07/18 11:31:15;;;;;;;1.85;0.50;;;31.50;47.20;;;;;;5029718;28;20038;-83
2022/07/18 11:33:45;;;;;;;2.60;0.50;;;31.50;47.30;;;;;;5007747;28;20445;-84
2022/07/18 11:36:13;;;;;;;2.92;0.50;;;31.50;47.20;;;;;;4998609;28;20029;-84
2022/07/18 11:38:46;;;;;;;6.47;0.47;;;31.60;47.20;;;;;;5016573;28;20111;-84
2022/07/18 11:41:12;;;;;;;1.80;0.40;;;31.70;47.30;;;;;;5015905;28;20489;-84
2022/07/18 11:43:37;;;;;;;1.88;0.38;;;31.80;47.20;;;;;;5033005;28;20048;-84
2022/07/18 11:46:08;;;;;;;1.95;0.50;;;31.90;47.30;;;;;;5014449;28;20040;-83
2022/07/18 11:48:35;;;;;;;1.85;0.40;;;32.00;47.60;;;;;;5016162;28;20171;-84
2022/07/18 11:51:01;;;;;;;3.33;0.40;;;32.00;46.90;;;;;;5015302;28;20041;-84
2022/07/18 11:53:28;;;;;;;2.55;0.68;;;32.10;46.60;;;;;;5006375;28;20032;-84
2022/07/18 11:55:55;;;;;;;3.95;0.47;;;32.10;46.50;;;;;;5002710;28;20081;-84
2022/07/18 11:58:21;;;;;;;1.33;0.50;;;32.10;46.80;;;;;;5002377;28;20053;-84
2022/07/18 12:00:47;;;;;;;3.03;0.45;;;32.20;46.70;;;;;;5029572;28;20033;-84
2022/07/18 12:03:23;;;;;;;0.90;0.43;;;32.20;46.30;;;;;;5017684;28;20044;-84
2022/07/18 12:05:52;;;;;;;2.08;0.35;;;32.30;46.10;;;;;;5032377;28;20030;-82
2022/07/18 12:08:35;;;;;;;2.03;0.32;;;32.30;45.80;;;;;;5015525;28;21043;-84
2022/07/18 12:11:08;;;;;;;2.00;0.70;;;32.30;45.70;;;;;;5031713;28;20056;-84
2022/07/18 12:13:47;;;;;;;5.38;0.52;;;32.20;46.00;;;;;;5016362;28;20030;-84
2022/07/18 12:16:23;;;;;;;2.00;0.40;;;32.30;45.60;;;;;;5033079;28;20389;-84
2022/07/18 12:18:54;;;;;;;1.73;0.40;;;32.40;45.60;;;;;;5033365;28;20025;-84
2022/07/18 12:21:20;;;;;;;3.55;0.63;;;32.40;45.00;;;;;;5013976;28;20167;-84
2022/07/18 12:23:46;;;;;;;3.33;0.50;;;32.40;44.70;;;;;;4995469;28;20116;-84
2022/07/18 12:26:28;;;;;;;2.85;0.50;;;32.50;44.80;;;;;;5013149;28;20107;-84
2022/07/18 12:29:07;;;;;;;2.08;0.68;;;32.50;45.30;;;;;;5015294;28;20474;-83
2022/07/18 12:31:45;;;;;;;2.67;0.47;;;32.40;44.70;;;;;;5013613;28;20036;-88
2022/07/18 12:34:16;;;;;;;1.40;0.50;;;32.40;44.50;;;;;;5026820;28;20025;-83
2022/07/18 12:36:51;;;;;;;;;;;32.60;44.50;;;;;;5032619;28;20025;-83
2022/07/18 12:39:31;;;;;;;1.73;0.50;;;32.60;44.80;;;;;;5008166;28;19963;-83
2022/07/18 12:41:57;;;;;;;2.05;0.52;;;32.50;44.20;;;;;;5032735;28;20037;-83
2022/07/18 12:44:25;;;;;;;2.53;0.50;;;32.50;44.40;;;;;;5010867;28;20022;-85
2022/07/18 12:46:51;;;;;;;0.98;0.40;;;32.60;44.20;;;;;;5013881;28;20021;-84
2022/07/18 12:49:16;;;;;;;1.83;0.50;;;32.60;43.80;;;;;;5030347;28;20056;-84
2022/07/18 12:51:42;;;;;;;1.92;0.60;;;32.70;43.70;;;;;;5007791;28;20057;-84
2022/07/18 12:54:08;;;;;;;1.83;0.50;;;32.80;42.00;;;;;;5031746;28;20057;-84